Time;durP1;ratioP1;P1;durP2;ratioP2;P2;SDS_P1;SDS_P2;PMS_P1;PMS_P2;Temp;Humidity;BMP_temperature;BMP_pressure;BME280_temperature;BME280_humidity;BME280_pressure;Samples;Min_cycle;Max_cycle;Signal;HPM_P1;HPM_P2
2021/07/20 00:00:08;;;;;;;;;;;;;;;27.59;47.35;98817.00;5092725;28;20366;-50
2021/07/20 00:02:38;;;;;;;;;;;;;;;27.32;47.95;98819.22;5092980;28;19912;-52
2021/07/20 00:05:04;;;;;;;;;;;;;;;27.03;48.89;98823.63;5092662;28;20283;-49
2021/07/20 00:07:29;;;;;;;;;;;;;;;27.13;48.74;98818.91;5091226;28;19988;-52
2021/07/20 00:09:55;;;;;;;;;;;;;;;27.11;48.92;98825.50;5092654;28;19947;-52
2021/07/20 00:12:20;;;;;;;;;;;;;;;27.43;48.18;98828.56;5091044;28;19912;-50
2021/07/20 00:14:45;;;;;;;;;;;;;;;27.52;47.91;98833.94;5092513;28;19966;-52
2021/07/20 00:17:10;;;;;;;;;;;;;;;27.40;48.23;98831.22;5093092;28;19923;-51
2021/07/20 00:19:36;;;;;;;;;;;;;;;27.43;48.24;98830.50;5112514;28;20019;-53
2021/07/20 00:22:01;;;;;;;;;;;;;;;27.36;48.39;98831.06;5112874;28;19918;-52
2021/07/20 00:24:26;;;;;;;;;;;;;;;27.46;48.11;98838.03;5112731;28;20344;-52
2021/07/20 00:26:51;;;;;;;;;;;;;;;27.36;48.17;98842.00;5112585;28;20002;-53
2021/07/20 00:29:17;;;;;;;;;;;;;;;27.37;48.18;98851.78;5112489;28;20344;-50
2021/07/20 00:31:42;;;;;;;;;;;;;;;27.44;47.94;98854.75;5093625;28;19912;-50
2021/07/20 00:34:07;;;;;;;;;;;;;;;27.52;47.97;98853.06;5092270;28;19919;-52
2021/07/20 00:36:33;;;;;;;;;;;;;;;27.23;48.52;98845.81;5091965;28;19912;-50
2021/07/20 00:38:58;;;;;;;;;;;;;;;27.25;48.53;98852.53;5092172;28;19912;-50
2021/07/20 00:41:23;;;;;;;;;;;;;;;27.14;49.05;98848.59;5090521;28;20665;-51
2021/07/20 00:43:49;;;;;;;;;;;;;;;27.22;48.78;98860.56;5091808;28;19976;-51
2021/07/20 00:46:14;;;;;;;;;;;;;;;27.26;48.65;98859.63;5091874;28;19920;-49
2021/07/20 00:48:39;;;;;;;;;;;;;;;27.23;48.63;98860.25;5091803;28;19912;-52
2021/07/20 00:51:05;;;;;;;;;;;;;;;27.18;48.82;98857.72;5091696;28;19919;-52
2021/07/20 00:53:30;;;;;;;;;;;;;;;27.25;48.73;98859.94;5091780;28;19940;-49
2021/07/20 00:55:55;;;;;;;;;;;;;;;27.03;49.19;98855.59;5090465;28;19916;-51
2021/07/20 00:58:20;;;;;;;;;;;;;;;27.14;48.95;98856.00;5091611;28;19955;-52
2021/07/20 01:00:49;;;;;;;;;;;;;;;27.08;49.15;98863.59;5091773;28;19916;-51
2021/07/20 01:03:14;;;;;;;;;;;;;;;27.07;49.21;98856.53;5091725;28;19912;-51
2021/07/20 01:05:39;;;;;;;;;;;;;;;27.21;48.97;98856.25;5089960;28;19938;-51
2021/07/20 01:08:05;;;;;;;;;;;;;;;26.65;49.96;98840.16;5091726;28;20309;-51
2021/07/20 01:10:30;;;;;;;;;;;;;;;26.80;50.09;98863.34;5091495;28;19912;-52
2021/07/20 01:12:56;;;;;;;;;;;;;;;26.84;49.98;98867.78;5091608;28;19912;-53
2021/07/20 01:15:23;;;;;;;;;;;;;;;26.77;50.04;98862.09;5090035;28;20056;-52
2021/07/20 01:17:48;;;;;;;;;;;;;;;27.06;49.31;98861.19;5097109;28;19931;-51
2021/07/20 01:20:15;;;;;;;;;;;;;;;27.06;49.39;98865.88;5110410;28;19915;-52
2021/07/20 01:22:40;;;;;;;;;;;;;;;27.16;49.13;98870.13;5112555;28;19918;-53
2021/07/20 01:25:09;;;;;;;;;;;;;;;27.19;49.03;98869.44;5111914;28;19920;-52
2021/07/20 01:27:35;;;;;;;;;;;;;;;27.12;49.05;98859.06;5112173;28;19912;-52
2021/07/20 01:30:01;;;;;;;;;;;;;;;26.93;49.56;98862.28;5105979;28;19965;-49
2021/07/20 01:32:26;;;;;;;;;;;;;;;26.77;50.08;98866.72;5090072;28;19920;-48
2021/07/20 01:34:51;;;;;;;;;;;;;;;26.91;49.68;98878.97;5090077;28;19912;-52
2021/07/20 01:37:16;;;;;;;;;;;;;;;26.96;49.53;98877.19;5091852;28;19912;-52
2021/07/20 01:39:42;;;;;;;;;;;;;;;26.86;49.76;98878.38;5073179;28;19935;-51
2021/07/20 01:42:08;;;;;;;;;;;;;;;26.80;49.91;98877.78;5090347;28;20291;-53
2021/07/20 01:44:33;;;;;;;;;;;;;;;26.92;49.80;98879.75;5089889;28;19916;-53
2021/07/20 01:46:58;;;;;;;;;;;;;;;26.97;49.40;98878.78;5090400;28;19951;-52
2021/07/20 01:49:24;;;;;;;;;;;;;;;27.01;49.34;98883.22;5091341;28;19912;-53
2021/07/20 01:51:49;;;;;;;;;;;;;;;27.15;49.00;98885.72;5089884;28;19920;-51
2021/07/20 01:54:14;;;;;;;;;;;;;;;27.26;48.67;98884.19;5091280;28;19931;-52
2021/07/20 01:56:39;;;;;;;;;;;;;;;27.12;48.96;98891.81;5091207;28;19963;-50
2021/07/20 01:59:07;;;;;;;;;;;;;;;27.25;48.80;98889.97;5091154;28;19919;-50
2021/07/20 02:01:34;;;;;;;;;;;;;;;27.19;48.84;98881.16;5089804;28;20344;-52
2021/07/20 02:09:24;;;;;;;;;;;;;;;27.17;48.74;98890.81;5089861;28;19919;-51
2021/07/20 02:11:49;;;;;;;;;;;;;;;27.31;48.62;98888.63;5089967;28;20348;-49
2021/07/20 02:14:15;;;;;;;;;;;;;;;27.21;48.90;98887.09;5089723;28;19918;-50
2021/07/20 02:16:46;;;;;;;;;;;;;;;27.07;49.17;98889.28;5089609;28;19967;-53
2021/07/20 02:19:12;;;;;;;;;;;;;;;27.01;49.27;98891.41;5106772;28;19924;-52
2021/07/20 02:21:41;;;;;;;;;;;;;;;26.67;49.52;98855.09;5111121;28;19912;-51
2021/07/20 02:24:07;;;;;;;;;;;;;;;27.15;49.19;98902.09;5111189;28;19938;-49
2021/07/20 02:26:32;;;;;;;;;;;;;;;27.02;49.33;98903.16;5109607;28;20283;-48
2021/07/20 02:28:57;;;;;;;;;;;;;;;27.05;49.30;98897.81;5110276;28;20434;-49
2021/07/20 02:31:23;;;;;;;;;;;;;;;27.15;48.97;98899.34;5094836;28;19961;-51
2021/07/20 02:33:48;;;;;;;;;;;;;;;27.28;48.66;98898.31;5090645;28;19912;-52
2021/07/20 02:36:14;;;;;;;;;;;;;;;27.03;48.96;98891.09;5090320;28;19912;-52
2021/07/20 02:38:39;;;;;;;;;;;;;;;26.90;49.12;98895.69;5089100;28;19912;-51
2021/07/20 02:41:04;;;;;;;;;;;;;;;26.86;48.96;98895.53;5090183;28;19978;-51
2021/07/20 02:43:30;;;;;;;;;;;;;;;26.83;48.94;98893.50;5089051;28;19920;-51
2021/07/20 02:45:55;;;;;;;;;;;;;;;26.86;48.82;98892.03;5090655;28;19917;-53
2021/07/20 02:48:22;;;;;;;;;;;;;;;26.94;48.51;98887.63;5089104;28;20417;-52
2021/07/20 02:50:48;;;;;;;;;;;;;;;27.08;48.12;98890.91;5090370;28;19919;-52
2021/07/20 02:53:13;;;;;;;;;;;;;;;27.14;47.69;98889.56;5088728;28;19912;-53
2021/07/20 02:55:39;;;;;;;;;;;;;;;27.16;47.72;98897.41;5088721;28;19973;-52
2021/07/20 02:58:04;;;;;;;;;;;;;;;27.22;47.28;98896.06;5090500;28;19912;-53
2021/07/20 03:00:29;;;;;;;;;;;;;;;27.22;47.09;98893.34;5089014;28;20410;-51
2021/07/20 03:02:54;;;;;;;;;;;;;;;26.95;47.29;98884.56;5088994;28;20434;-51
2021/07/20 03:05:20;;;;;;;;;;;;;;;27.20;46.83;98903.81;5088896;28;19935;-50
2021/07/20 03:07:46;;;;;;;;;;;;;;;27.22;46.69;98912.47;5088722;28;19912;-51
2021/07/20 03:10:12;;;;;;;;;;;;;;;27.22;46.61;98915.97;5088888;28;19912;-52
2021/07/20 03:12:37;;;;;;;;;;;;;;;27.10;46.84;98918.66;5090343;28;19919;-51
2021/07/20 03:15:03;;;;;;;;;;;;;;;26.86;47.14;98916.59;5090253;28;20424;-51
2021/07/20 03:17:29;;;;;;;;;;;;;;;27.00;47.06;98914.41;5091224;28;19915;-52
2021/07/20 03:19:54;;;;;;;;;;;;;;;27.06;46.84;98921.25;5108123;28;20299;-53
2021/07/20 03:22:21;;;;;;;;;;;;;;;27.02;46.64;98911.34;5109975;28;19960;-52
2021/07/20 03:24:46;;;;;;;;;;;;;;;26.98;46.67;98913.13;5108730;28;20307;-51
2021/07/20 03:27:11;;;;;;;;;;;;;;;27.13;46.57;98914.47;5109437;28;19918;-50
2021/07/20 03:29:42;;;;;;;;;;;;;;;27.06;46.82;98913.06;5109116;28;20279;-50
2021/07/20 03:32:11;;;;;;;;;;;;;;;27.11;46.71;98912.88;5110646;28;19986;-52
2021/07/20 03:34:36;;;;;;;;;;;;;;;27.13;46.59;98919.91;5109107;28;19967;-52
2021/07/20 03:37:02;;;;;;;;;;;;;;;27.09;46.54;98922.50;5108927;28;19912;-52
2021/07/20 03:39:27;;;;;;;;;;;;;;;27.23;46.23;98928.50;5109025;28;19911;-50
2021/07/20 03:41:53;;;;;;;;;;;;;;;27.19;46.60;98927.59;5113240;28;19919;-50
2021/07/20 03:44:18;;;;;;;;;;;;;;;27.32;46.23;98930.38;5112964;28;19911;-51
2021/07/20 03:46:43;;;;;;;;;;;;;;;27.34;46.40;98936.31;5112679;28;19912;-51
2021/07/20 03:49:09;;;;;;;;;;;;;;;27.47;46.09;98932.50;5112671;28;20217;-51
2021/07/20 03:51:34;;;;;;;;;;;;;;;27.72;45.76;98938.88;5113599;28;20406;-50
2021/07/20 03:54:00;;;;;;;;;;;;;;;27.80;45.71;98926.25;5112531;28;19962;-50
2021/07/20 03:56:25;;;;;;;;;;;;;;;28.06;45.16;98932.25;5113668;28;19912;-52
2021/07/20 03:58:50;;;;;;;;;;;;;;;28.35;44.37;98941.38;5112601;28;19912;-53
2021/07/20 04:01:16;;;;;;;;;;;;;;;28.53;44.24;98939.25;5112565;28;19973;-51
2021/07/20 04:03:41;;;;;;;;;;;;;;;28.67;43.87;98944.34;5112225;28;20619;-49
2021/07/20 04:06:10;;;;;;;;;;;;;;;28.32;44.62;98936.59;5113815;28;19967;-51
2021/07/20 04:08:36;;;;;;;;;;;;;;;28.52;44.32;98942.31;5113557;28;19998;-53
2021/07/20 04:11:02;;;;;;;;;;;;;;;28.72;43.94;98946.06;5112096;28;19915;-51
2021/07/20 04:13:27;;;;;;;;;;;;;;;28.92;43.56;98945.13;5112021;28;19912;-51
2021/07/20 04:15:58;;;;;;;;;;;;;;;29.18;43.02;98947.47;5112177;28;19976;-53
2021/07/20 04:18:24;;;;;;;;;;;;;;;29.21;42.49;98951.47;5107672;28;20523;-49
2021/07/20 04:20:49;;;;;;;;;;;;;;;29.22;42.58;98953.06;5111461;28;19931;-50
2021/07/20 04:23:15;;;;;;;;;;;;;;;29.13;42.76;98953.22;5113200;28;19912;-48
2021/07/20 04:25:43;;;;;;;;;;;;;;;29.42;42.12;98967.72;5113196;28;20019;-49
2021/07/20 04:28:08;;;;;;;;;;;;;;;29.69;41.39;98966.13;5113185;27;19959;-49
2021/07/20 04:30:34;;;;;;;;;;;;;;;29.75;41.48;98969.44;5112214;28;19964;-51
2021/07/20 04:32:59;;;;;;;;;;;;;;;29.89;41.39;98974.50;5093148;28;20350;-50
2021/07/20 04:35:24;;;;;;;;;;;;;;;30.03;41.03;98969.41;5091470;28;20215;-51
2021/07/20 04:37:50;;;;;;;;;;;;;;;30.11;41.15;98971.16;5090297;28;19912;-51
2021/07/20 04:40:16;;;;;;;;;;;;;;;30.38;40.39;98965.97;5089729;28;20314;-52
2021/07/20 04:42:41;;;;;;;;;;;;;;;30.09;41.03;98969.94;5089897;28;19911;-49
2021/07/20 04:45:07;;;;;;;;;;;;;;;30.38;40.42;98975.00;5090938;28;20347;-50
2021/07/20 04:47:32;;;;;;;;;;;;;;;30.90;39.67;98977.78;5090492;28;19912;-49
2021/07/20 04:49:57;;;;;;;;;;;;;;;30.65;39.68;98971.72;5090768;28;19964;-49
2021/07/20 04:52:22;;;;;;;;;;;;;;;31.30;38.58;98977.50;5089986;28;19935;-50
2021/07/20 04:54:48;;;;;;;;;;;;;;;30.51;40.28;98977.66;5094422;28;20363;-50
2021/07/20 04:57:13;;;;;;;;;;;;;;;30.89;39.93;98982.47;5108112;28;19911;-50
2021/07/20 04:59:39;;;;;;;;;;;;;;;31.13;39.28;98981.47;5110210;28;20375;-51
2021/07/20 05:02:05;;;;;;;;;;;;;;;31.30;38.91;98983.00;5110683;28;19951;-50
2021/07/20 05:04:31;;;;;;;;;;;;;;;31.50;38.42;98986.56;5110400;28;19922;-52
2021/07/20 05:06:56;;;;;;;;;;;;;;;31.61;38.09;98980.50;5110792;28;19916;-50
2021/07/20 05:09:21;;;;;;;;;;;;;;;30.99;39.47;98986.63;5109880;28;20006;-49
2021/07/20 05:11:47;;;;;;;;;;;;;;;30.80;39.80;98988.16;5111160;28;20356;-52
2021/07/20 05:14:12;;;;;;;;;;;;;;;30.98;39.47;98985.84;5110501;28;20279;-52
2021/07/20 05:16:37;;;;;;;;;;;;;;;31.44;38.93;98992.69;5108942;28;19916;-51
2021/07/20 05:19:03;;;;;;;;;;;;;;;31.55;38.65;98996.50;5106402;28;20400;-50
2021/07/20 05:21:29;;;;;;;;;;;;;;;30.77;39.81;98999.06;5110274;28;19918;-51
2021/07/20 05:23:54;;;;;;;;;;;;;;;30.76;40.29;98995.50;5094615;28;19917;-54
2021/07/20 05:26:19;;;;;;;;;;;;;;;31.42;39.06;98990.31;5088623;28;20397;-49
2021/07/20 05:28:45;;;;;;;;;;;;;;;31.49;38.81;98997.91;5071737;28;19912;-52
2021/07/20 05:31:10;;;;;;;;;;;;;;;32.31;37.17;98998.66;5088483;28;20362;-51
2021/07/20 05:33:35;;;;;;;;;;;;;;;32.64;36.70;99002.78;5089865;28;19912;-51
2021/07/20 05:36:01;;;;;;;;;;;;;;;32.29;37.53;99001.81;5088082;28;20374;-52
2021/07/20 05:38:26;;;;;;;;;;;;;;;32.54;37.04;99004.19;5089518;28;19939;-52
2021/07/20 05:40:53;;;;;;;;;;;;;;;33.16;36.11;99009.47;5089822;28;20379;-51
2021/07/20 05:43:18;;;;;;;;;;;;;;;33.87;34.53;99008.75;5089405;28;20002;-52
2021/07/20 05:45:43;;;;;;;;;;;;;;;33.52;35.47;99009.13;5089268;28;20414;-53
2021/07/20 05:48:09;;;;;;;;;;;;;;;33.44;35.53;99011.81;5089578;28;19919;-52
2021/07/20 05:50:36;;;;;;;;;;;;;;;33.33;35.75;99021.09;5088193;28;19916;-51
2021/07/20 05:53:01;;;;;;;;;;;;;;;33.69;34.84;99012.13;5088527;28;20413;-51
2021/07/20 05:55:27;;;;;;;;;;;;;;;34.04;34.60;99007.34;5087923;28;19969;-52
2021/07/20 05:57:52;;;;;;;;;;;;;;;33.81;34.66;99016.56;5088187;28;19965;-52
2021/07/20 06:00:22;;;;;;;;;;;;;;;33.43;35.24;99010.19;5089255;28;19934;-53
2021/07/20 06:02:47;;;;;;;;;;;;;;;33.77;34.78;99018.50;5089297;28;19916;-52
2021/07/20 06:05:13;;;;;;;;;;;;;;;34.43;33.83;99012.50;5087903;28;19984;-52
2021/07/20 06:07:38;;;;;;;;;;;;;;;34.22;33.81;99011.13;5087765;28;19974;-51
2021/07/20 06:10:04;;;;;;;;;;;;;;;33.49;35.07;99007.91;5087825;28;19926;-51
2021/07/20 06:12:29;;;;;;;;;;;;;;;33.85;34.80;99019.38;5089246;28;19968;-52
2021/07/20 06:14:54;;;;;;;;;;;;;;;34.09;34.31;99012.53;5087538;28;19916;-51
2021/07/20 06:17:23;;;;;;;;;;;;;;;34.54;32.98;99018.88;5089765;28;20022;-51
2021/07/20 06:19:49;;;;;;;;;;;;;;;34.78;32.67;99008.44;5107796;28;19992;-51
2021/07/20 06:22:14;;;;;;;;;;;;;;;35.04;32.75;99012.94;5107535;28;19916;-53
2021/07/20 06:24:43;;;;;;;;;;;;;;;35.05;32.38;99012.56;5109138;28;20375;-49
2021/07/20 06:27:12;;;;;;;;;;;;;;;35.34;32.35;99014.69;5109140;28;20275;-50
2021/07/20 06:29:37;;;;;;;;;;;;;;;35.73;31.60;99012.09;5109377;28;19912;-52
2021/07/20 06:32:02;;;;;;;;;;;;;;;34.50;33.02;99007.03;5108046;28;19911;-52
2021/07/20 06:34:28;;;;;;;;;;;;;;;34.31;33.75;99007.25;5091550;28;20390;-49
2021/07/20 06:36:54;;;;;;;;;;;;;;;34.08;33.86;99011.75;5089045;28;19912;-52
2021/07/20 06:39:19;;;;;;;;;;;;;;;34.89;32.42;98998.22;5087135;28;19912;-51
2021/07/20 06:41:44;;;;;;;;;;;;;;;35.28;31.58;99008.75;5087235;28;20037;-52
2021/07/20 06:44:09;;;;;;;;;;;;;;;35.06;32.46;99007.81;5087534;28;20368;-53
2021/07/20 06:46:35;;;;;;;;;;;;;;;35.13;32.15;99007.84;5088760;28;19919;-53
2021/07/20 06:49:00;;;;;;;;;;;;;;;35.52;31.19;99000.94;5087872;28;20339;-52
2021/07/20 06:51:28;;;;;;;;;;;;;;;35.63;30.87;99008.09;5088803;28;20305;-52
2021/07/20 06:53:53;;;;;;;;;;;;;;;35.65;31.27;99010.47;5091130;28;20034;-50
2021/07/20 06:56:20;;;;;;;;;;;;;;;36.23;29.97;98997.56;5090191;28;20019;-52
2021/07/20 06:58:45;;;;;;;;;;;;;;;35.17;31.55;98994.06;5084302;28;19970;-51
2021/07/20 07:01:11;;;;;;;;;;;;;;;35.68;31.15;99001.44;5095060;28;19916;-52
2021/07/20 07:03:46;;;;;;;;;;;;;;;36.36;30.55;99001.53;5099539;28;20410;-52
2021/07/20 07:06:12;;;;;;;;;;;;;;;36.47;29.79;98998.00;5096497;28;19927;-49
2021/07/20 07:08:37;;;;;;;;;;;;;;;36.39;30.02;98997.97;5099345;28;20295;-49
2021/07/20 07:11:02;;;;;;;;;;;;;;;36.48;29.59;99005.09;5093520;28;19976;-53
2021/07/20 07:13:28;;;;;;;;;;;;;;;36.12;30.22;99005.84;5087378;28;19969;-50
2021/07/20 07:15:54;;;;;;;;;;;;;;;36.26;30.57;98998.78;5088679;28;19912;-52
2021/07/20 07:18:19;;;;;;;;;;;;;;;36.78;28.85;98996.38;5101892;28;19927;-53
2021/07/20 07:20:47;;;;;;;;;;;;;;;37.09;28.58;99002.25;5112504;28;19916;-51
2021/07/20 07:23:13;;;;;;;;;;;;;;;37.20;28.50;99003.03;5112913;28;19916;-52
2021/07/20 07:25:39;;;;;;;;;;;;;;;36.88;28.95;99003.91;5111440;28;19924;-49
2021/07/20 07:28:04;;;;;;;;;;;;;;;36.32;28.92;98995.22;5112814;28;19911;-53
2021/07/20 07:30:29;;;;;;;;;;;;;;;36.41;28.93;99000.38;5112767;28;20006;-50
2021/07/20 07:32:55;;;;;;;;;;;;;;;36.81;29.09;99009.47;5107243;28;19939;-51
2021/07/20 07:35:21;;;;;;;;;;;;;;;37.15;28.66;99014.56;5092314;28;19974;-53
2021/07/20 07:37:46;;;;;;;;;;;;;;;36.33;29.52;99012.63;5090798;28;19981;-51
2021/07/20 07:40:12;;;;;;;;;;;;;;;36.04;29.86;99017.31;5090652;28;19919;-50
2021/07/20 07:42:38;;;;;;;;;;;;;;;35.78;29.65;99011.72;5092227;28;19999;-51
2021/07/20 07:45:03;;;;;;;;;;;;;;;34.97;31.20;99012.88;5091988;28;20007;-50
2021/07/20 07:47:29;;;;;;;;;;;;;;;34.88;31.46;99013.25;5091913;28;20494;-52
2021/07/20 07:49:55;;;;;;;;;;;;;;;35.44;31.10;99016.72;5090668;28;19923;-51
2021/07/20 07:52:20;;;;;;;;;;;;;;;35.11;31.36;99009.41;5090888;28;19912;-52
2021/07/20 07:54:46;;;;;;;;;;;;;;;35.86;29.92;99006.22;5092198;28;19935;-55
2021/07/20 07:57:11;;;;;;;;;;;;;;;35.66;30.59;99003.75;5091627;28;19912;-51
2021/07/20 07:59:38;;;;;;;;;;;;;;;35.73;30.60;99008.53;5090308;28;20014;-51
2021/07/20 08:02:03;;;;;;;;;;;;;;;35.59;30.06;99003.75;5092908;28;19912;-50
2021/07/20 08:04:28;;;;;;;;;;;;;;;35.97;30.03;99009.78;5091619;28;19930;-52
2021/07/20 08:06:54;;;;;;;;;;;;;;;36.62;29.12;99004.31;5093369;28;20418;-53
2021/07/20 08:09:23;;;;;;;;;;;;;;;36.89;28.31;98999.94;5092095;28;19976;-51
2021/07/20 08:11:48;;;;;;;;;;;;;;;35.95;29.75;98988.03;5091523;28;19912;-51
2021/07/20 08:14:14;;;;;;;;;;;;;;;36.54;28.96;98987.69;5090932;28;19992;-52
2021/07/20 08:16:42;;;;;;;;;;;;;;;36.94;28.86;98988.44;5090963;28;20030;-50
2021/07/20 08:19:07;;;;;;;;;;;;;;;37.61;27.51;98990.63;5108033;28;19984;-51
2021/07/20 08:21:32;;;;;;;;;;;;;;;37.51;26.93;98986.69;5111151;28;19916;-52
2021/07/20 08:23:58;;;;;;;;;;;;;;;37.48;26.92;98990.25;5112285;28;20366;-51
2021/07/20 08:26:24;;;;;;;;;;;;;;;36.16;28.64;98983.72;5112163;28;20034;-52
2021/07/20 08:28:51;;;;;;;;;;;;;;;36.12;29.23;98972.63;5109897;28;19996;-52
2021/07/20 08:31:16;;;;;;;;;;;;;;;36.55;28.43;98974.63;5110895;27;19919;-50
2021/07/20 08:33:42;;;;;;;;;;;;;;;37.16;27.37;98977.31;5110334;28;19912;-52
2021/07/20 08:36:08;;;;;;;;;;;;;;;37.94;26.59;98980.88;5109087;28;20607;-50
2021/07/20 08:38:35;;;;;;;;;;;;;;;37.37;26.71;98976.44;5109437;28;20370;-51
2021/07/20 08:41:09;;;;;;;;;;;;;;;37.19;27.42;98976.50;5109723;28;19995;-51
2021/07/20 08:43:44;;;;;;;;;;;;;;;36.69;27.67;98976.59;5112350;28;19912;-51
2021/07/20 08:46:13;;;;;;;;;;;;;;;37.13;27.71;98962.28;5110717;28;19916;-50
2021/07/20 08:48:56;;;;;;;;;;;;;;;37.97;26.71;98980.09;5111957;28;19955;-53
2021/07/20 08:51:28;;;;;;;;;;;;;;;38.01;26.41;98972.50;5110614;28;19990;-51
2021/07/20 08:53:56;;;;;;;;;;;;;;;37.58;26.68;98967.19;5110468;28;19912;-53
2021/07/20 08:56:22;;;;;;;;;;;;;;;37.07;27.55;98963.84;5110771;28;19912;-52
2021/07/20 08:58:49;;;;;;;;;;;;;;;37.15;27.15;98964.66;5110532;28;19977;-52
2021/07/20 09:01:17;;;;;;;;;;;;;;;37.58;27.11;98969.97;5111476;28;19911;-52
2021/07/20 09:03:51;;;;;;;;;;;;;;;37.30;26.84;98966.16;5111823;28;19912;-51
2021/07/20 09:06:21;;;;;;;;;;;;;;;37.16;27.24;98957.91;5110246;28;19963;-52
2021/07/20 09:08:56;;;;;;;;;;;;;;;36.95;26.74;98962.28;5110390;28;19912;-52
2021/07/20 09:11:38;;;;;;;;;;;;;;;36.91;26.80;98955.97;5093150;28;19912;-51
2021/07/20 09:14:09;;;;;;;;;;;;;;;36.62;26.94;98946.91;5090188;28;20002;-52
2021/07/20 09:16:35;;;;;;;;;;;;;;;36.56;26.89;98954.84;5091023;28;19919;-52
2021/07/20 09:19:12;;;;;;;;;;;;;;;37.21;26.55;98940.84;5105796;28;19923;-51
2021/07/20 09:21:39;;;;;;;;;;;;;;;37.45;26.13;98953.03;5110471;28;19973;-52
2021/07/20 09:24:24;;;;;;;;;;;;;;;37.35;26.29;98946.31;5111544;28;19960;-52
2021/07/20 09:26:56;;;;;;;;;;;;;;;37.02;26.79;98947.63;5099632;28;20056;-51
2021/07/20 09:29:22;;;;;;;;;;;;;;;36.65;27.07;98934.22;5110245;28;20317;-52
2021/07/20 09:31:47;;;;;;;;;;;;;;;36.36;27.69;98945.34;5109882;28;20014;-52
2021/07/20 09:34:12;;;;;;;;;;;;;;;36.31;27.59;98951.28;5111071;28;20058;-52
2021/07/20 09:36:37;;;;;;;;;;;;;;;36.74;27.06;98945.72;5111390;28;20034;-51
2021/07/20 09:39:14;;;;;;;;;;;;;;;36.96;26.31;98936.16;5110779;28;19916;-52
2021/07/20 09:41:43;;;;;;;;;;;;;;;37.53;25.28;98942.69;5109666;28;20409;-52
2021/07/20 09:44:08;;;;;;;;;;;;;;;37.67;25.38;98944.59;5090584;28;19915;-52
2021/07/20 09:46:41;;;;;;;;;;;;;;;37.89;24.66;98934.94;5090516;28;19927;-52
2021/07/20 09:49:11;;;;;;;;;;;;;;;37.73;24.79;98929.88;5090657;28;20065;-53
2021/07/20 09:51:49;;;;;;;;;;;;;;;37.64;25.26;98934.28;5090760;28;20309;-51
2021/07/20 09:54:14;;;;;;;;;;;;;;;37.27;25.51;98928.13;5090380;28;19913;-52
2021/07/20 09:56:55;;;;;;;;;;;;;;;37.35;25.02;98932.44;5090360;28;19951;-52
2021/07/20 09:59:20;;;;;;;;;;;;;;;37.83;24.87;98935.75;5090162;28;20422;-52
2021/07/20 10:01:46;;;;;;;;;;;;;;;37.23;25.87;98932.13;5088208;28;20007;-52
2021/07/20 10:04:13;;;;;;;;;;;;;;;37.04;26.02;98923.06;5088839;28;20082;-52
2021/07/20 10:06:48;;;;;;;;;;;;;;;36.69;26.96;98919.22;5090069;28;20384;-52
2021/07/20 10:09:32;;;;;;;;;;;;;;;36.96;26.26;98929.84;5090241;28;20334;-53
2021/07/20 10:11:58;;;;;;;;;;;;;;;37.64;24.95;98925.97;5090362;28;19955;-52
2021/07/20 10:14:53;;;;;;;;;;;;;;;37.44;24.91;98931.22;5088787;28;19916;-52
2021/07/20 10:17:24;;;;;;;;;;;;;;;37.90;24.81;98919.84;5087353;28;19916;-53
2021/07/20 10:19:57;;;;;;;;;;;;;;;37.77;24.77;98920.75;5110398;28;20014;-53
2021/07/20 10:22:34;;;;;;;;;;;;;;;37.88;24.34;98902.03;5110471;28;19916;-52
2021/07/20 10:25:01;;;;;;;;;;;;;;;37.47;25.49;98914.56;5108777;28;19939;-52
2021/07/20 10:27:28;;;;;;;;;;;;;;;38.08;24.52;98908.63;5108980;28;19999;-52
2021/07/20 10:29:56;;;;;;;;;;;;;;;38.39;23.39;98914.28;5110462;28;20002;-52
2021/07/20 10:32:23;;;;;;;;;;;;;;;38.36;23.80;98914.31;5110147;28;19919;-52
2021/07/20 10:34:52;;;;;;;;;;;;;;;38.05;24.81;98909.41;5110439;28;19968;-52
2021/07/20 10:37:19;;;;;;;;;;;;;;;38.11;24.77;98913.34;5110129;28;19974;-52
2021/07/20 10:39:49;;;;;;;;;;;;;;;37.68;25.31;98919.22;5108851;28;19961;-53
2021/07/20 10:42:17;;;;;;;;;;;;;;;37.85;24.70;98917.50;5104699;28;19919;-52
2021/07/20 10:44:52;;;;;;;;;;;;;;;38.13;24.08;98913.72;5089281;28;19961;-52
2021/07/20 10:47:17;;;;;;;;;;;;;;;38.32;23.89;98903.25;5089706;28;19912;-52
2021/07/20 10:49:43;;;;;;;;;;;;;;;38.26;24.05;98904.91;5088192;28;19919;-53
2021/07/20 10:52:16;;;;;;;;;;;;;;;37.98;24.39;98897.56;5089688;28;19992;-52
2021/07/20 10:54:44;;;;;;;;;;;;;;;38.34;24.12;98900.84;5088282;28;20003;-52
2021/07/20 10:57:10;;;;;;;;;;;;;;;38.23;24.03;98898.19;5089432;28;20054;-53
2021/07/20 10:59:48;;;;;;;;;;;;;;;38.38;23.67;98887.69;5088631;28;19939;-53
2021/07/20 11:02:16;;;;;;;;;;;;;;;37.99;24.32;98888.06;5089430;28;20057;-52
2021/07/20 11:04:41;;;;;;;;;;;;;;;37.33;25.26;98893.22;5089128;28;19959;-53
2021/07/20 11:07:06;;;;;;;;;;;;;;;36.77;26.27;98886.75;5089577;28;20295;-53
2021/07/20 11:09:31;;;;;;;;;;;;;;;37.31;24.94;98876.22;5089481;28;19982;-53
2021/07/20 11:11:58;;;;;;;;;;;;;;;37.22;25.37;98886.94;5088292;28;20012;-52
2021/07/20 11:14:25;;;;;;;;;;;;;;;37.59;25.30;98880.00;5088123;28;20423;-53
2021/07/20 11:16:51;;;;;;;;;;;;;;;38.21;24.31;98867.22;5088029;28;19926;-53
2021/07/20 11:19:16;;;;;;;;;;;;;;;38.36;23.90;98876.22;5107968;28;19924;-53
2021/07/20 11:21:43;;;;;;;;;;;;;;;38.07;24.91;98867.34;5108447;28;20360;-51
2021/07/20 11:24:08;;;;;;;;;;;;;;;38.26;24.60;98874.34;5109854;28;19912;-51
2021/07/20 11:26:34;;;;;;;;;;;;;;;38.50;24.18;98856.63;5108272;28;19964;-52
2021/07/20 11:28:59;;;;;;;;;;;;;;;38.30;24.32;98863.97;5109761;28;19912;-52
2021/07/20 11:31:29;;;;;;;;;;;;;;;38.01;25.35;98861.47;5109686;28;19918;-54
2021/07/20 11:33:59;;;;;;;;;;;;;;;37.78;25.21;98862.06;5109639;28;19911;-53
2021/07/20 11:36:24;;;;;;;;;;;;;;;38.41;24.58;98855.56;5109540;28;19912;-52
2021/07/20 11:38:54;;;;;;;;;;;;;;;38.82;24.05;98851.91;5109667;28;19912;-53
2021/07/20 11:41:25;;;;;;;;;;;;;;;37.28;25.61;98854.84;5109700;28;19912;-52
2021/07/20 11:43:50;;;;;;;;;;;;;;;37.21;25.63;98862.41;5091940;28;19953;-52
2021/07/20 11:46:16;;;;;;;;;;;;;;;37.23;25.97;98876.66;5088944;28;20376;-52
2021/07/20 11:49:01;;;;;;;;;;;;;;;37.62;25.89;98879.19;5087847;28;19912;-53
2021/07/20 11:51:28;;;;;;;;;;;;;;;38.17;24.89;98877.59;5088380;28;19969;-52
2021/07/20 11:53:53;;;;;;;;;;;;;;;37.98;24.67;98867.03;5087930;28;20301;-51
2021/07/20 11:56:26;;;;;;;;;;;;;;;37.41;25.71;98866.25;5088983;28;19970;-50
2021/07/20 11:59:10;;;;;;;;;;;;;;;37.21;25.92;98863.19;5088830;28;19998;-52
2021/07/20 12:01:47;;;;;;;;;;;;;;;37.44;25.72;98859.09;5090432;28;20358;-51
2021/07/20 12:04:28;;;;;;;;;;;;;;;37.96;25.38;98856.34;5093049;28;19912;-52
2021/07/20 12:06:56;;;;;;;;;;;;;;;38.39;24.53;98852.41;5092667;28;19931;-51
2021/07/20 12:09:41;;;;;;;;;;;;;;;38.43;25.24;98855.91;5091293;28;19961;-53
2021/07/20 12:12:06;;;;;;;;;;;;;;;38.34;24.94;98843.28;5092511;28;20007;-52
2021/07/20 12:14:31;;;;;;;;;;;;;;;37.34;25.16;98849.66;5092300;28;20006;-52
2021/07/20 12:16:57;;;;;;;;;;;;;;;37.09;25.88;98861.66;5092825;28;20350;-51
2021/07/20 12:19:28;;;;;;;;;;;;;;;37.50;25.24;98849.94;5110349;28;19932;-52
2021/07/20 12:21:53;;;;;;;;;;;;;;;38.02;24.79;98848.34;5113073;28;19918;-52
2021/07/20 12:24:22;;;;;;;;;;;;;;;37.92;25.40;98839.72;5112463;28;19911;-52
2021/07/20 12:26:47;;;;;;;;;;;;;;;37.30;26.33;98851.66;5111398;28;19999;-52
2021/07/20 12:29:13;;;;;;;;;;;;;;;36.27;27.27;98821.16;5112468;28;19943;-53
2021/07/20 12:31:38;;;;;;;;;;;;;;;36.61;27.19;98842.81;5112663;28;20382;-51
2021/07/20 12:34:03;;;;;;;;;;;;;;;36.76;26.58;98838.81;5113004;28;19916;-51
2021/07/20 12:36:29;;;;;;;;;;;;;;;37.09;26.37;98838.66;5112610;28;19969;-50
2021/07/20 12:39:07;;;;;;;;;;;;;;;37.44;26.07;98848.00;5112217;28;19912;-53
2021/07/20 12:41:33;;;;;;;;;;;;;;;37.24;25.45;98845.72;5112367;28;20398;-51
2021/07/20 12:43:58;;;;;;;;;;;;;;;37.27;24.92;98841.38;5093632;28;20321;-50
2021/07/20 12:46:27;;;;;;;;;;;;;;;37.80;24.99;98833.91;5091724;28;19916;-53
2021/07/20 12:48:52;;;;;;;;;;;;;;;37.58;24.74;98831.25;5092079;28;19908;-52
2021/07/20 12:51:18;;;;;;;;;;;;;;;37.29;25.38;98837.00;5091608;28;20403;-51